LMG400 DNAA-FNBJ
Flight info
| Callsign | LMG400 |
|---|---|
| Flight time | N/A |
| Altitude | 30000 |
| Route | IKVAD1Q IKVAD DCT MILBU UV456 POT UY604 BIPIV/N0334F270 DCT IPOTA DCT SISTA UA400 VNA DCT VBJ |
| Aircraft | A400/M-SDE2E3FGRY/LB1D1G1 |
Departure
| Time | 2026-04-23 14:12 |
|---|---|
| Airport | Nnamdi Azikiwe International Airport (DNAA) |
Arrival
| Time | N/A |
|---|---|
| Airport | Dr. Antonio Agostinho Neto International Airport (FNBJ) |
| Time | Latitude | Longitude | Altitude | Speed | Heading |
|---|---|---|---|---|---|
| 2026-04-23 13:49 | 9.00496 | 7.26902 | 1119 ft | 0 kts | 73° |
| 2026-04-23 14:00 | 9.00494 | 7.26897 | 1116 ft | 3 kts | 73° |
| 2026-04-23 14:00 | 9.00489 | 7.26879 | 1116 ft | 3 kts | 73° |
| 2026-04-23 14:01 | 9.00484 | 7.26861 | 1114 ft | 3 kts | 73° |
| 2026-04-23 14:01 | 9.00479 | 7.26844 | 1111 ft | 3 kts | 73° |
| 2026-04-23 14:01 | 9.00474 | 7.26828 | 1111 ft | 2 kts | 73° |
| 2026-04-23 14:01 | 9.00470 | 7.26812 | 1112 ft | 2 kts | 73° |
| 2026-04-23 14:02 | 9.00469 | 7.26808 | 1111 ft | 0 kts | 73° |
| 2026-04-23 14:04 | 9.00471 | 7.26812 | 1107 ft | 1 kts | 63° |
| 2026-04-23 14:05 | 9.00494 | 7.26823 | 1117 ft | 3 kts | 345° |
| 2026-04-23 14:05 | 9.00516 | 7.26813 | 1114 ft | 4 kts | 332° |
| 2026-04-23 14:05 | 9.00544 | 7.26798 | 1115 ft | 5 kts | 332° |
| 2026-04-23 14:05 | 9.00581 | 7.26778 | 1115 ft | 7 kts | 332° |
| 2026-04-23 14:06 | 9.00625 | 7.26747 | 1119 ft | 8 kts | 316° |
| 2026-04-23 14:06 | 9.00663 | 7.26698 | 1118 ft | 10 kts | 307° |
| 2026-04-23 14:06 | 9.00703 | 7.26641 | 1112 ft | 10 kts | 305° |
| 2026-04-23 14:06 | 9.00763 | 7.26600 | 1122 ft | 11 kts | 352° |
| 2026-04-23 14:07 | 9.00830 | 7.26630 | 1121 ft | 11 kts | 34° |
| 2026-04-23 14:07 | 9.00968 | 7.26727 | 1114 ft | 15 kts | 36° |
| 2026-04-23 14:07 | 9.01067 | 7.26796 | 1133 ft | 19 kts | 34° |
| 2026-04-23 14:08 | 9.01184 | 7.26877 | 1133 ft | 22 kts | 33° |
| 2026-04-23 14:08 | 9.01306 | 7.26966 | 1134 ft | 21 kts | 36° |
| 2026-04-23 14:08 | 9.01419 | 7.27049 | 1133 ft | 19 kts | 34° |
| 2026-04-23 14:08 | 9.01523 | 7.27120 | 1136 ft | 17 kts | 33° |
| 2026-04-23 14:09 | 9.01618 | 7.27183 | 1138 ft | 16 kts | 33° |
| 2026-04-23 14:09 | 9.01703 | 7.27246 | 1139 ft | 15 kts | 36° |
| 2026-04-23 14:09 | 9.01753 | 7.27282 | 1141 ft | 0 kts | 44° |
| 2026-04-23 14:09 | 9.01646 | 7.27096 | 1135 ft | 0 kts | 322° |
| 2026-04-23 14:10 | 9.01541 | 7.27130 | 1137 ft | 0 kts | 294° |
| 2026-04-23 14:10 | 9.01544 | 7.27123 | 1136 ft | 2 kts | 295° |
| 2026-04-23 14:10 | 9.01553 | 7.27104 | 1136 ft | 4 kts | 295° |
| 2026-04-23 14:10 | 9.01566 | 7.27077 | 1133 ft | 5 kts | 295° |
| 2026-04-23 14:11 | 9.01581 | 7.27045 | 1140 ft | 8 kts | 297° |
| 2026-04-23 14:11 | 9.01603 | 7.26964 | 1134 ft | 8 kts | 263° |
| 2026-04-23 14:11 | 9.01593 | 7.26943 | 1136 ft | 3 kts | 198° |
| 2026-04-23 14:11 | 9.01540 | 7.26918 | 1134 ft | 12 kts | 212° |
| 2026-04-23 14:12 | 9.01375 | 7.26803 | 1133 ft | 61 kts | 216° |
| 2026-04-23 14:12 | 9.00733 | 7.26355 | 1114 ft | 154 kts | 214° |
| 2026-04-23 14:12 | 8.99706 | 7.25629 | 1268 ft | 198 kts | 215° |
| 2026-04-23 14:12 | 8.98535 | 7.24825 | 1999 ft | 201 kts | 215° |
| 2026-04-23 14:13 | 8.97398 | 7.24047 | 3042 ft | 197 kts | 213° |
| 2026-04-23 14:13 | 8.96085 | 7.23474 | 3596 ft | 223 kts | 196° |
| 2026-04-23 14:13 | 8.94431 | 7.23136 | 3906 ft | 255 kts | 188° |
| 2026-04-23 14:13 | 8.92624 | 7.22975 | 4432 ft | 271 kts | 183° |
| 2026-04-23 14:14 | 8.90717 | 7.22915 | 5152 ft | 277 kts | 181° |
| 2026-04-23 14:14 | 8.88770 | 7.22896 | 5906 ft | 281 kts | 181° |
| 2026-04-23 14:14 | 8.86798 | 7.22879 | 6629 ft | 286 kts | 180° |
| 2026-04-23 14:14 | 8.84787 | 7.22849 | 7315 ft | 292 kts | 180° |
| 2026-04-23 14:15 | 8.82743 | 7.22800 | 8048 ft | 295 kts | 180° |
| 2026-04-23 14:15 | 8.80672 | 7.22737 | 8789 ft | 300 kts | 180° |
| 2026-04-23 14:15 | 8.78570 | 7.22664 | 9501 ft | 306 kts | 180° |
| 2026-04-23 14:15 | 8.76411 | 7.22584 | 10077 ft | 314 kts | 180° |
| 2026-04-23 14:16 | 8.74184 | 7.22501 | 10598 ft | 323 kts | 180° |
| 2026-04-23 14:16 | 8.71923 | 7.22415 | 11209 ft | 326 kts | 180° |
| 2026-04-23 14:16 | 8.69640 | 7.22329 | 11856 ft | 329 kts | 180° |
| 2026-04-23 14:16 | 8.67372 | 7.22243 | 12484 ft | 332 kts | 180° |
| 2026-04-23 14:17 | 8.65053 | 7.22156 | 13143 ft | 334 kts | 180° |
| 2026-04-23 14:17 | 8.62720 | 7.22068 | 13757 ft | 337 kts | 180° |
| 2026-04-23 14:17 | 8.60363 | 7.21980 | 14320 ft | 341 kts | 181° |
| 2026-04-23 14:17 | 8.57982 | 7.21892 | 14865 ft | 344 kts | 181° |
| 2026-04-23 14:18 | 8.55576 | 7.21803 | 15421 ft | 348 kts | 181° |
| 2026-04-23 14:18 | 8.53145 | 7.21713 | 15987 ft | 352 kts | 181° |
| 2026-04-23 14:18 | 8.50683 | 7.21621 | 16561 ft | 355 kts | 182° |
| 2026-04-23 14:18 | 8.48196 | 7.21529 | 17128 ft | 359 kts | 182° |
| 2026-04-23 14:19 | 8.45696 | 7.21436 | 17713 ft | 362 kts | 182° |
| 2026-04-23 14:19 | 8.43163 | 7.21341 | 18249 ft | 365 kts | 182° |
| 2026-04-23 14:19 | 8.40604 | 7.21246 | 18632 ft | 372 kts | 182° |
| 2026-04-23 14:19 | 8.37997 | 7.21149 | 19026 ft | 376 kts | 182° |
| 2026-04-23 14:20 | 8.35383 | 7.21052 | 19461 ft | 379 kts | 182° |
| 2026-04-23 14:20 | 8.32764 | 7.20956 | 19918 ft | 381 kts | 182° |
| 2026-04-23 14:20 | 8.30065 | 7.20856 | 20383 ft | 382 kts | 183° |
| 2026-04-23 14:20 | 8.27401 | 7.20758 | 20871 ft | 383 kts | 183° |
| 2026-04-23 14:21 | 8.24819 | 7.20662 | 21319 ft | 384 kts | 182° |
| 2026-04-23 14:21 | 8.22125 | 7.20562 | 21753 ft | 385 kts | 183° |
| 2026-04-23 14:21 | 8.19422 | 7.20454 | 22012 ft | 391 kts | 183° |
| 2026-04-23 14:21 | 8.16680 | 7.20325 | 22195 ft | 398 kts | 183° |
| 2026-04-23 14:22 | 8.13897 | 7.20183 | 22436 ft | 401 kts | 184° |
| 2026-04-23 14:22 | 8.11107 | 7.20038 | 22719 ft | 403 kts | 184° |
| 2026-04-23 14:22 | 8.08299 | 7.19891 | 22995 ft | 404 kts | 184° |
| 2026-04-23 14:22 | 8.05485 | 7.19745 | 23264 ft | 406 kts | 184° |
| 2026-04-23 14:23 | 8.02658 | 7.19600 | 23459 ft | 408 kts | 184° |
| 2026-04-23 14:23 | 7.99843 | 7.19456 | 23597 ft | 411 kts | 184° |
| 2026-04-23 14:23 | 7.96978 | 7.19310 | 23731 ft | 414 kts | 184° |
| 2026-04-23 14:23 | 7.94090 | 7.19154 | 23881 ft | 416 kts | 184° |
| 2026-04-23 14:24 | 7.91187 | 7.18953 | 24033 ft | 419 kts | 185° |
| 2026-04-23 14:24 | 7.88281 | 7.18723 | 24170 ft | 421 kts | 185° |
| 2026-04-23 14:24 | 7.85349 | 7.18463 | 24305 ft | 423 kts | 186° |
| 2026-04-23 14:24 | 7.82414 | 7.18172 | 24457 ft | 425 kts | 186° |
| 2026-04-23 14:25 | 7.79466 | 7.17866 | 24609 ft | 426 kts | 186° |
| 2026-04-23 14:25 | 7.76518 | 7.17559 | 24862 ft | 424 kts | 186° |
| 2026-04-23 14:25 | 7.73585 | 7.17255 | 25197 ft | 421 kts | 186° |
| 2026-04-23 14:25 | 7.70684 | 7.16958 | 25438 ft | 421 kts | 186° |
| 2026-04-23 14:26 | 7.67748 | 7.16661 | 25632 ft | 423 kts | 186° |
| 2026-04-23 14:26 | 7.64810 | 7.16365 | 25801 ft | 425 kts | 186° |
| 2026-04-23 14:26 | 7.61897 | 7.16074 | 25972 ft | 427 kts | 186° |
| 2026-04-23 14:26 | 7.58939 | 7.15793 | 26134 ft | 428 kts | 185° |
| 2026-04-23 14:27 | 7.55966 | 7.15523 | 26280 ft | 430 kts | 185° |
| 2026-04-23 14:27 | 7.52967 | 7.15257 | 26436 ft | 432 kts | 185° |
| 2026-04-23 14:27 | 7.49964 | 7.14992 | 26583 ft | 434 kts | 185° |
| 2026-04-23 14:27 | 7.46949 | 7.14726 | 26724 ft | 435 kts | 185° |
| 2026-04-23 14:28 | 7.43924 | 7.14458 | 26861 ft | 437 kts | 185° |
| 2026-04-23 14:28 | 7.40885 | 7.14188 | 27019 ft | 438 kts | 185° |
| 2026-04-23 14:28 | 7.37859 | 7.13918 | 27257 ft | 436 kts | 185° |
| 2026-04-23 14:28 | 7.34841 | 7.13648 | 27440 ft | 437 kts | 185° |
| 2026-04-23 14:29 | 7.32822 | 7.13467 | 27551 ft | 438 kts | 185° |
| 2026-04-23 14:29 | 7.28788 | 7.13106 | 27738 ft | 440 kts | 185° |
| 2026-04-23 14:29 | 7.25734 | 7.12833 | 27883 ft | 441 kts | 185° |
| 2026-04-23 14:29 | 7.22685 | 7.12560 | 28144 ft | 439 kts | 185° |
| 2026-04-23 14:30 | 7.20637 | 7.12377 | 28282 ft | 439 kts | 185° |
| 2026-04-23 14:30 | 7.17582 | 7.12103 | 28450 ft | 440 kts | 185° |
| 2026-04-23 14:30 | 7.14557 | 7.11833 | 28597 ft | 442 kts | 185° |
| 2026-04-23 14:30 | 7.11489 | 7.11558 | 28748 ft | 443 kts | 185° |
| 2026-04-23 14:31 | 7.08411 | 7.11283 | 28939 ft | 443 kts | 185° |
| 2026-04-23 14:31 | 7.05340 | 7.11009 | 29121 ft | 444 kts | 185° |
| 2026-04-23 14:31 | 7.02256 | 7.10733 | 29307 ft | 444 kts | 185° |
| 2026-04-23 14:31 | 6.99174 | 7.10458 | 29445 ft | 446 kts | 185° |
| 2026-04-23 14:32 | 6.92963 | 7.09735 | 29571 ft | 452 kts | 189° |
| 2026-04-23 14:32 | 6.86709 | 7.08702 | 29688 ft | 456 kts | 186° |
| 2026-04-23 14:33 | 6.80434 | 7.08134 | 29748 ft | 457 kts | 184° |
| 2026-04-23 14:33 | 6.74120 | 7.07712 | 29757 ft | 457 kts | 183° |
| 2026-04-23 14:34 | 6.67754 | 7.07339 | 29758 ft | 457 kts | 183° |
| 2026-04-23 14:34 | 6.61403 | 7.06970 | 29760 ft | 457 kts | 183° |
| 2026-04-23 14:35 | 6.55067 | 7.06587 | 29764 ft | 456 kts | 184° |
| 2026-04-23 14:35 | 6.48738 | 7.06062 | 29765 ft | 456 kts | 185° |
| 2026-04-23 14:36 | 6.42462 | 7.05470 | 29762 ft | 456 kts | 185° |
| 2026-04-23 14:36 | 6.36136 | 7.04877 | 29768 ft | 455 kts | 185° |
| 2026-04-23 14:37 | 6.29829 | 7.04298 | 29773 ft | 455 kts | 185° |
| 2026-04-23 14:37 | 6.23522 | 7.03726 | 29775 ft | 455 kts | 184° |
| 2026-04-23 14:38 | 6.17212 | 7.03155 | 29779 ft | 454 kts | 184° |
| 2026-04-23 14:38 | 6.10909 | 7.02586 | 29779 ft | 454 kts | 184° |
| 2026-04-23 14:39 | 6.04614 | 7.02053 | 29785 ft | 454 kts | 184° |
| 2026-04-23 14:39 | 5.98321 | 7.01537 | 29785 ft | 453 kts | 184° |
| 2026-04-23 14:40 | 5.92037 | 7.01021 | 29783 ft | 453 kts | 184° |
| 2026-04-23 14:40 | 5.85794 | 7.00505 | 29786 ft | 452 kts | 184° |
| 2026-04-23 14:41 | 5.79511 | 7.00010 | 29787 ft | 452 kts | 182° |
| 2026-04-23 14:41 | 5.73236 | 6.99659 | 29786 ft | 451 kts | 181° |
| 2026-04-23 14:42 | 5.66985 | 6.99354 | 29790 ft | 451 kts | 181° |
| 2026-04-23 14:42 | 5.60717 | 6.99040 | 29789 ft | 451 kts | 181° |
| 2026-04-23 14:43 | 5.54453 | 6.98716 | 29790 ft | 450 kts | 181° |
| 2026-04-23 14:43 | 5.48190 | 6.98386 | 29794 ft | 450 kts | 182° |
| 2026-04-23 14:44 | 5.41940 | 6.98059 | 29796 ft | 450 kts | 181° |
| 2026-04-23 14:44 | 5.35694 | 6.97736 | 29798 ft | 449 kts | 181° |
| 2026-04-23 14:45 | 5.29442 | 6.97414 | 29799 ft | 449 kts | 181° |
| 2026-04-23 14:45 | 5.23189 | 6.97091 | 29792 ft | 448 kts | 181° |
| 2026-04-23 14:46 | 5.17001 | 6.96772 | 29796 ft | 448 kts | 181° |
| 2026-04-23 14:46 | 5.10771 | 6.96450 | 29800 ft | 448 kts | 181° |
| 2026-04-23 14:47 | 5.04550 | 6.96128 | 29797 ft | 447 kts | 181° |
| 2026-04-23 14:47 | 4.98340 | 6.95638 | 29800 ft | 447 kts | 184° |
| 2026-04-23 14:48 | 4.92144 | 6.95015 | 29801 ft | 447 kts | 184° |
| 2026-04-23 14:48 | 4.85951 | 6.94388 | 29805 ft | 447 kts | 184° |
| 2026-04-23 14:49 | 4.79762 | 6.93780 | 29798 ft | 446 kts | 184° |
| 2026-04-23 14:49 | 4.73585 | 6.93184 | 29808 ft | 446 kts | 184° |
| 2026-04-23 14:50 | 4.67445 | 6.92594 | 29806 ft | 446 kts | 184° |
| 2026-04-23 14:50 | 4.61272 | 6.92000 | 29803 ft | 446 kts | 184° |
| 2026-04-23 14:51 | 4.55088 | 6.91405 | 29809 ft | 445 kts | 184° |
| 2026-04-23 14:51 | 4.48923 | 6.90811 | 29808 ft | 445 kts | 184° |
| 2026-04-23 14:52 | 4.42738 | 6.90218 | 29810 ft | 445 kts | 184° |
| 2026-04-23 14:52 | 4.36576 | 6.89627 | 29809 ft | 445 kts | 184° |
| 2026-04-23 14:53 | 4.30409 | 6.89035 | 29807 ft | 445 kts | 184° |
| 2026-04-23 14:53 | 4.24282 | 6.88448 | 29814 ft | 445 kts | 184° |
| 2026-04-23 14:54 | 4.18119 | 6.87857 | 29805 ft | 445 kts | 184° |
| 2026-04-23 14:54 | 4.11958 | 6.87266 | 29808 ft | 445 kts | 184° |
| 2026-04-23 14:55 | 4.05788 | 6.86675 | 29806 ft | 445 kts | 184° |
| 2026-04-23 14:55 | 3.99615 | 6.86086 | 29809 ft | 445 kts | 184° |
| 2026-04-23 14:56 | 3.93485 | 6.85502 | 29810 ft | 445 kts | 184° |
| 2026-04-23 14:56 | 3.87303 | 6.84914 | 29810 ft | 445 kts | 184° |
| 2026-04-23 14:57 | 3.81123 | 6.84326 | 29812 ft | 446 kts | 184° |
| 2026-04-23 14:57 | 3.74937 | 6.83736 | 29805 ft | 446 kts | 184° |
| 2026-04-23 14:58 | 3.68757 | 6.83148 | 29808 ft | 446 kts | 184° |
| 2026-04-23 14:58 | 3.62580 | 6.82560 | 29807 ft | 445 kts | 184° |
| 2026-04-23 14:59 | 3.56449 | 6.81976 | 29812 ft | 445 kts | 184° |
| 2026-04-23 14:59 | 3.50274 | 6.81389 | 29809 ft | 445 kts | 184° |
| 2026-04-23 15:00 | 3.44107 | 6.80802 | 29815 ft | 445 kts | 184° |
| 2026-04-23 15:00 | 3.37950 | 6.80216 | 29818 ft | 445 kts | 184° |
| 2026-04-23 15:01 | 3.31792 | 6.79630 | 29805 ft | 444 kts | 184° |
| 2026-04-23 15:01 | 3.25672 | 6.79048 | 29811 ft | 444 kts | 184° |
| 2026-04-23 15:02 | 3.19516 | 6.78572 | 29808 ft | 442 kts | 177° |
| 2026-04-23 15:02 | 3.16469 | 6.78874 | 29808 ft | 439 kts | 166° |
| 2026-04-23 15:02 | 3.13509 | 6.79591 | 29811 ft | 438 kts | 162° |
| 2026-04-23 15:03 | 3.07687 | 6.81338 | 29799 ft | 437 kts | 160° |
| 2026-04-23 15:03 | 3.01897 | 6.83231 | 29801 ft | 437 kts | 159° |
| 2026-04-23 15:04 | 2.96156 | 6.85104 | 29812 ft | 436 kts | 160° |
| 2026-04-23 15:04 | 2.90382 | 6.86961 | 29815 ft | 436 kts | 160° |
| 2026-04-23 15:05 | 2.84594 | 6.88809 | 29800 ft | 436 kts | 160° |
| 2026-04-23 15:05 | 2.78796 | 6.90658 | 29816 ft | 436 kts | 160° |
| 2026-04-23 15:06 | 2.73010 | 6.92503 | 29818 ft | 436 kts | 160° |
| 2026-04-23 15:06 | 2.67579 | 6.94236 | 29803 ft | 436 kts | 160° |
| 2026-04-23 15:07 | 2.61801 | 6.96080 | 29801 ft | 436 kts | 160° |
| 2026-04-23 15:07 | 2.56020 | 6.97924 | 29808 ft | 435 kts | 160° |
| 2026-04-23 15:08 | 2.50241 | 6.99768 | 29813 ft | 436 kts | 160° |
| 2026-04-23 15:09 | 2.41582 | 7.02530 | 29816 ft | 435 kts | 160° |
| 2026-04-23 15:09 | 2.35848 | 7.04359 | 29816 ft | 435 kts | 160° |
| 2026-04-23 15:10 | 2.31039 | 7.05892 | 29809 ft | 435 kts | 160° |
| 2026-04-23 15:10 | 2.24304 | 7.08040 | 29806 ft | 435 kts | 160° |
| 2026-04-23 15:11 | 2.18533 | 7.09880 | 29809 ft | 434 kts | 160° |
| 2026-04-23 15:11 | 2.12807 | 7.11706 | 29820 ft | 434 kts | 160° |
| 2026-04-23 15:12 | 2.07042 | 7.13544 | 29808 ft | 434 kts | 160° |
| 2026-04-23 15:12 | 2.01284 | 7.15379 | 29804 ft | 434 kts | 160° |
| 2026-04-23 15:13 | 1.95532 | 7.17213 | 29805 ft | 433 kts | 160° |
| 2026-04-23 15:13 | 1.89839 | 7.19027 | 29816 ft | 432 kts | 160° |
| 2026-04-23 15:14 | 1.84117 | 7.20851 | 29811 ft | 430 kts | 160° |
| 2026-04-23 15:14 | 1.78417 | 7.22667 | 29805 ft | 429 kts | 160° |
| 2026-04-23 15:15 | 1.72743 | 7.24475 | 29807 ft | 427 kts | 160° |
| 2026-04-23 15:15 | 1.67089 | 7.26276 | 29812 ft | 425 kts | 160° |
| 2026-04-23 15:16 | 1.61489 | 7.28061 | 29812 ft | 423 kts | 160° |
| 2026-04-23 15:16 | 1.55886 | 7.29846 | 29805 ft | 422 kts | 160° |
| 2026-04-23 15:17 | 1.50297 | 7.31626 | 29808 ft | 420 kts | 160° |
| 2026-04-23 15:17 | 1.44746 | 7.33395 | 29816 ft | 418 kts | 160° |
| 2026-04-23 15:18 | 1.40150 | 7.34859 | 29813 ft | 416 kts | 160° |
| 2026-04-23 15:18 | 1.34648 | 7.36611 | 29808 ft | 414 kts | 160° |
| 2026-04-23 15:19 | 1.29165 | 7.38358 | 29817 ft | 412 kts | 160° |
| 2026-04-23 15:19 | 1.23703 | 7.40098 | 29810 ft | 410 kts | 160° |
| 2026-04-23 15:20 | 1.18176 | 7.41536 | 29815 ft | 410 kts | 165° |
| 2026-04-23 15:20 | 1.12642 | 7.42708 | 29806 ft | 408 kts | 166° |
| 2026-04-23 15:21 | 1.07082 | 7.43834 | 29812 ft | 406 kts | 166° |
| 2026-04-23 15:21 | 1.01544 | 7.44953 | 29807 ft | 405 kts | 166° |
| 2026-04-23 15:22 | 0.96035 | 7.46073 | 29811 ft | 403 kts | 166° |
| 2026-04-23 15:22 | 0.90583 | 7.47185 | 29803 ft | 401 kts | 166° |
| 2026-04-23 15:23 | 0.85108 | 7.48303 | 29812 ft | 401 kts | 166° |
| 2026-04-23 15:23 | 0.79649 | 7.49417 | 29814 ft | 400 kts | 166° |
| 2026-04-23 15:24 | 0.74204 | 7.50528 | 29809 ft | 398 kts | 166° |
| 2026-04-23 15:24 | 0.68783 | 7.51634 | 29808 ft | 397 kts | 166° |
| 2026-04-23 15:25 | 0.63373 | 7.52738 | 29805 ft | 396 kts | 166° |
| 2026-04-23 15:25 | 0.57979 | 7.53838 | 29811 ft | 395 kts | 166° |
| 2026-04-23 15:26 | 0.52637 | 7.54928 | 29804 ft | 394 kts | 166° |
| 2026-04-23 15:26 | 0.47275 | 7.56023 | 29805 ft | 392 kts | 166° |
| 2026-04-23 15:27 | 0.41937 | 7.57111 | 29808 ft | 391 kts | 166° |
| 2026-04-23 15:27 | 0.36606 | 7.58199 | 29811 ft | 390 kts | 166° |
| 2026-04-23 15:28 | 0.31302 | 7.59281 | 29805 ft | 389 kts | 166° |
| 2026-04-23 15:28 | 0.26031 | 7.60357 | 29810 ft | 388 kts | 166° |
| 2026-04-23 15:29 | 0.20747 | 7.61435 | 29811 ft | 387 kts | 166° |
| 2026-04-23 15:29 | 0.15483 | 7.62509 | 29812 ft | 386 kts | 166° |
| 2026-04-23 15:30 | 0.10216 | 7.63583 | 29813 ft | 386 kts | 167° |
| 2026-04-23 15:30 | 0.04954 | 7.64657 | 29805 ft | 385 kts | 166° |
| 2026-04-23 15:31 | -0.00288 | 7.65727 | 29817 ft | 384 kts | 167° |
| 2026-04-23 15:31 | -0.05485 | 7.66787 | 29811 ft | 383 kts | 167° |
| 2026-04-23 15:32 | -0.10704 | 7.67851 | 29813 ft | 383 kts | 166° |
| 2026-04-23 15:32 | -0.15923 | 7.68916 | 29810 ft | 384 kts | 167° |
| 2026-04-23 15:33 | -0.21174 | 7.69987 | 29811 ft | 385 kts | 167° |
| 2026-04-23 15:33 | -0.26425 | 7.71059 | 29810 ft | 385 kts | 167° |
| 2026-04-23 15:34 | -0.31680 | 7.72131 | 29810 ft | 386 kts | 167° |
| 2026-04-23 15:34 | -0.36911 | 7.73198 | 29812 ft | 386 kts | 167° |
| 2026-04-23 15:35 | -0.42187 | 7.74274 | 29810 ft | 386 kts | 167° |
| 2026-04-23 15:35 | -0.47456 | 7.75349 | 29810 ft | 386 kts | 167° |
| 2026-04-23 15:36 | -0.52721 | 7.76424 | 29812 ft | 386 kts | 167° |
| 2026-04-23 15:36 | -0.57989 | 7.77499 | 29812 ft | 386 kts | 167° |
| 2026-04-23 15:37 | -0.63253 | 7.78573 | 29810 ft | 385 kts | 167° |
| 2026-04-23 15:37 | -0.68501 | 7.79643 | 29811 ft | 385 kts | 167° |
| 2026-04-23 15:38 | -0.73720 | 7.80708 | 29813 ft | 385 kts | 167° |
| 2026-04-23 15:38 | -0.78983 | 7.81782 | 29811 ft | 386 kts | 167° |
| 2026-04-23 15:39 | -0.84254 | 7.82858 | 29816 ft | 387 kts | 167° |
| 2026-04-23 15:39 | -0.89551 | 7.83939 | 29809 ft | 388 kts | 168° |
| 2026-04-23 15:40 | -0.94840 | 7.85018 | 29816 ft | 388 kts | 167° |
| 2026-04-23 15:40 | -1.00131 | 7.86098 | 29820 ft | 388 kts | 168° |
| 2026-04-23 15:41 | -1.05392 | 7.87171 | 29818 ft | 387 kts | 168° |
| 2026-04-23 15:41 | -1.10674 | 7.88249 | 29814 ft | 387 kts | 168° |
| 2026-04-23 15:42 | -1.15940 | 7.89324 | 29813 ft | 386 kts | 168° |
| 2026-04-23 15:42 | -1.21199 | 7.90397 | 29814 ft | 385 kts | 168° |
| 2026-04-23 15:43 | -1.26442 | 7.91467 | 29817 ft | 384 kts | 168° |
| 2026-04-23 15:43 | -1.31651 | 7.92584 | 29819 ft | 382 kts | 163° |
| 2026-04-23 15:44 | -1.36434 | 7.94739 | 29832 ft | 380 kts | 147° |
| 2026-04-23 15:44 | -1.40837 | 7.97660 | 29827 ft | 378 kts | 144° |
| 2026-04-23 15:45 | -1.45118 | 8.00703 | 29834 ft | 378 kts | 143° |
| 2026-04-23 15:45 | -1.49395 | 8.03757 | 29813 ft | 377 kts | 143° |
| 2026-04-23 15:46 | -1.53643 | 8.06763 | 29828 ft | 376 kts | 144° |
| 2026-04-23 15:46 | -1.57929 | 8.09780 | 29823 ft | 376 kts | 144° |
| 2026-04-23 15:47 | -1.62220 | 8.12799 | 29694 ft | 379 kts | 144° |
| 2026-04-23 15:47 | -1.64282 | 8.14249 | 29568 ft | 382 kts | 144° |
| 2026-04-23 15:47 | -1.66472 | 8.15791 | 29444 ft | 385 kts | 143° |
| 2026-04-23 15:47 | -1.68666 | 8.17335 | 29307 ft | 387 kts | 144° |
| 2026-04-23 15:48 | -1.70874 | 8.18890 | 29183 ft | 389 kts | 143° |
| 2026-04-23 15:48 | -1.73095 | 8.20455 | 29045 ft | 391 kts | 143° |
| 2026-04-23 15:48 | -1.75290 | 8.22004 | 28919 ft | 393 kts | 143° |
| 2026-04-23 15:49 | -1.79756 | 8.25156 | 28820 ft | 392 kts | 144° |
| 2026-04-23 15:49 | -1.84200 | 8.28293 | 28822 ft | 390 kts | 143° |
| 2026-04-23 15:50 | -1.88631 | 8.31421 | 28822 ft | 389 kts | 143° |
| 2026-04-23 15:50 | -1.93061 | 8.34549 | 28824 ft | 390 kts | 143° |
| 2026-04-23 15:51 | -1.97504 | 8.37685 | 28823 ft | 391 kts | 144° |
| 2026-04-23 15:51 | -2.01967 | 8.40836 | 28824 ft | 393 kts | 143° |
| 2026-04-23 15:52 | -2.06448 | 8.44001 | 28828 ft | 395 kts | 143° |
| 2026-04-23 15:52 | -2.10919 | 8.47158 | 28827 ft | 397 kts | 143° |
| 2026-04-23 15:53 | -2.15458 | 8.50363 | 28825 ft | 399 kts | 143° |
| 2026-04-23 15:53 | -2.20016 | 8.53583 | 28830 ft | 402 kts | 143° |
| 2026-04-23 15:54 | -2.24593 | 8.56815 | 28822 ft | 403 kts | 144° |
| 2026-04-23 15:54 | -2.29151 | 8.60034 | 28823 ft | 405 kts | 143° |
| 2026-04-23 15:55 | -2.33763 | 8.63293 | 28823 ft | 407 kts | 143° |
| 2026-04-23 15:55 | -2.38396 | 8.66566 | 28824 ft | 409 kts | 143° |
| 2026-04-23 15:56 | -2.43066 | 8.69865 | 28824 ft | 412 kts | 143° |
| 2026-04-23 15:56 | -2.47767 | 8.73187 | 28825 ft | 415 kts | 143° |
| 2026-04-23 15:57 | -2.52502 | 8.76533 | 28827 ft | 418 kts | 143° |
| 2026-04-23 15:57 | -2.57243 | 8.79884 | 28827 ft | 421 kts | 143° |
| 2026-04-23 15:58 | -2.62046 | 8.83278 | 28829 ft | 423 kts | 143° |
| 2026-04-23 15:58 | -2.66853 | 8.86676 | 28831 ft | 423 kts | 143° |
| 2026-04-23 15:59 | -2.71661 | 8.90074 | 28830 ft | 423 kts | 143° |
| 2026-04-23 15:59 | -2.76435 | 8.93449 | 29014 ft | 424 kts | 143° |
| 2026-04-23 16:00 | -2.81267 | 8.96866 | 29184 ft | 423 kts | 143° |
| 2026-04-23 16:00 | -2.83662 | 8.98559 | 29439 ft | 419 kts | 143° |
| 2026-04-23 16:00 | -2.86033 | 9.00235 | 29672 ft | 417 kts | 143° |
| 2026-04-23 16:00 | -2.88401 | 9.01908 | 29851 ft | 415 kts | 143° |
| 2026-04-23 16:01 | -2.90757 | 9.03574 | 29984 ft | 415 kts | 143° |
| 2026-04-23 16:01 | -2.93114 | 9.05241 | 30100 ft | 414 kts | 143° |
| 2026-04-23 16:01 | -2.95469 | 9.06907 | 30205 ft | 414 kts | 143° |
| 2026-04-23 16:01 | -2.97828 | 9.08576 | 30306 ft | 414 kts | 143° |
| 2026-04-23 16:02 | -3.00179 | 9.10239 | 30418 ft | 414 kts | 143° |
| 2026-04-23 16:02 | -3.02501 | 9.11881 | 30557 ft | 414 kts | 143° |
| 2026-04-23 16:02 | -3.04712 | 9.13445 | 30654 ft | 416 kts | 143° |
| 2026-04-23 16:02 | -3.07079 | 9.15120 | 30770 ft | 417 kts | 143° |
| 2026-04-23 16:03 | -3.09455 | 9.16802 | 30818 ft | 420 kts | 143° |
| 2026-04-23 16:03 | -3.14259 | 9.20202 | 30827 ft | 424 kts | 143° |
| 2026-04-23 16:04 | -3.19078 | 9.23611 | 30826 ft | 424 kts | 143° |
| 2026-04-23 16:04 | -3.23902 | 9.27026 | 30830 ft | 424 kts | 143° |
| 2026-04-23 16:05 | -3.27909 | 9.29862 | 30833 ft | 424 kts | 143° |
| 2026-04-23 16:05 | -3.33513 | 9.33830 | 30829 ft | 424 kts | 143° |
| 2026-04-23 16:06 | -3.38345 | 9.37251 | 30826 ft | 424 kts | 143° |
| 2026-04-23 16:06 | -3.43160 | 9.40660 | 30826 ft | 424 kts | 143° |
| 2026-04-23 16:07 | -3.47976 | 9.44070 | 30832 ft | 424 kts | 143° |
| 2026-04-23 16:07 | -3.52769 | 9.47464 | 30830 ft | 424 kts | 143° |
| 2026-04-23 16:08 | -3.57590 | 9.50880 | 30829 ft | 424 kts | 143° |
| 2026-04-23 16:08 | -3.61598 | 9.53718 | 30827 ft | 424 kts | 143° |
| 2026-04-23 16:09 | -3.66413 | 9.57130 | 30829 ft | 424 kts | 143° |
| 2026-04-23 16:09 | -3.71234 | 9.60546 | 30825 ft | 424 kts | 143° |
| 2026-04-23 16:10 | -3.76056 | 9.63964 | 30824 ft | 424 kts | 143° |
| 2026-04-23 16:10 | -3.80832 | 9.67347 | 30830 ft | 423 kts | 143° |
| 2026-04-23 16:11 | -3.85641 | 9.70755 | 30832 ft | 423 kts | 143° |
| 2026-04-23 16:11 | -3.90444 | 9.74161 | 30831 ft | 423 kts | 143° |
| 2026-04-23 16:12 | -3.95247 | 9.77568 | 30830 ft | 423 kts | 143° |
| 2026-04-23 16:12 | -4.00048 | 9.80974 | 30830 ft | 422 kts | 143° |
| 2026-04-23 16:13 | -4.04811 | 9.84351 | 30830 ft | 418 kts | 143° |
| 2026-04-23 16:13 | -4.11935 | 9.89406 | 30829 ft | 422 kts | 143° |
| 2026-04-23 16:14 | -4.16738 | 9.92815 | 30827 ft | 422 kts | 143° |
| 2026-04-23 16:14 | -4.21534 | 9.96218 | 30829 ft | 422 kts | 143° |
| 2026-04-23 16:15 | -4.26321 | 9.99615 | 30826 ft | 422 kts | 143° |
| 2026-04-23 16:15 | -4.31084 | 10.02996 | 30826 ft | 421 kts | 143° |
| 2026-04-23 16:16 | -4.35873 | 10.06397 | 30826 ft | 421 kts | 143° |
| 2026-04-23 16:16 | -4.40652 | 10.09790 | 30829 ft | 421 kts | 143° |
| 2026-04-23 16:17 | -4.45438 | 10.13190 | 30830 ft | 421 kts | 143° |
| 2026-04-23 16:17 | -4.50189 | 10.16563 | 30828 ft | 420 kts | 143° |
| 2026-04-23 16:18 | -4.54967 | 10.19957 | 30827 ft | 420 kts | 143° |
| 2026-04-23 16:18 | -4.59739 | 10.23348 | 30828 ft | 420 kts | 143° |
| 2026-04-23 16:19 | -4.64512 | 10.26740 | 30827 ft | 420 kts | 143° |
| 2026-04-23 16:19 | -4.69278 | 10.30129 | 30830 ft | 420 kts | 143° |
| 2026-04-23 16:20 | -4.74042 | 10.33516 | 30828 ft | 420 kts | 143° |
| 2026-04-23 16:20 | -4.78778 | 10.36883 | 30828 ft | 419 kts | 143° |
| 2026-04-23 16:21 | -4.83539 | 10.40270 | 30829 ft | 419 kts | 143° |
| 2026-04-23 16:21 | -4.88291 | 10.43650 | 30829 ft | 419 kts | 143° |
| 2026-04-23 16:22 | -4.93011 | 10.47008 | 30828 ft | 418 kts | 143° |
| 2026-04-23 16:22 | -4.97762 | 10.50388 | 30830 ft | 418 kts | 143° |
| 2026-04-23 16:23 | -5.02505 | 10.53764 | 30827 ft | 418 kts | 143° |
| 2026-04-23 16:23 | -5.07253 | 10.57144 | 30830 ft | 418 kts | 144° |
| 2026-04-23 16:24 | -5.11964 | 10.60496 | 30828 ft | 418 kts | 144° |
| 2026-04-23 16:24 | -5.16705 | 10.63871 | 30828 ft | 417 kts | 144° |
| 2026-04-23 16:25 | -5.21436 | 10.67241 | 30827 ft | 417 kts | 144° |
| 2026-04-23 16:25 | -5.26174 | 10.70618 | 30825 ft | 417 kts | 144° |
| 2026-04-23 16:26 | -5.30903 | 10.73982 | 30827 ft | 416 kts | 144° |
| 2026-04-23 16:26 | -5.35615 | 10.77298 | 30826 ft | 416 kts | 144° |
| 2026-04-23 16:27 | -5.40361 | 10.80625 | 30824 ft | 416 kts | 144° |
| 2026-04-23 16:27 | -5.45091 | 10.83946 | 30826 ft | 415 kts | 144° |
| 2026-04-23 16:28 | -5.49822 | 10.87272 | 30827 ft | 414 kts | 144° |
| 2026-04-23 16:28 | -5.54537 | 10.90589 | 30827 ft | 413 kts | 144° |
| 2026-04-23 16:29 | -5.59248 | 10.93902 | 30825 ft | 412 kts | 144° |
| 2026-04-23 16:29 | -5.63939 | 10.97201 | 30827 ft | 411 kts | 144° |
| 2026-04-23 16:30 | -5.68589 | 11.00473 | 30822 ft | 411 kts | 144° |
| 2026-04-23 16:30 | -5.73266 | 11.03763 | 30825 ft | 410 kts | 144° |
| 2026-04-23 16:31 | -5.77935 | 11.07049 | 30825 ft | 409 kts | 144° |
| 2026-04-23 16:31 | -5.82591 | 11.10326 | 30827 ft | 408 kts | 144° |
| 2026-04-23 16:32 | -5.87243 | 11.13601 | 30827 ft | 408 kts | 144° |
| 2026-04-23 16:32 | -5.91858 | 11.16851 | 30826 ft | 407 kts | 144° |
| 2026-04-23 16:33 | -5.96495 | 11.20118 | 30828 ft | 408 kts | 144° |
| 2026-04-23 16:33 | -6.01145 | 11.23393 | 30827 ft | 407 kts | 144° |
| 2026-04-23 16:34 | -6.05784 | 11.26660 | 30827 ft | 407 kts | 144° |
| 2026-04-23 16:34 | -6.10431 | 11.29935 | 30824 ft | 407 kts | 144° |
| 2026-04-23 16:35 | -6.15034 | 11.33180 | 30827 ft | 407 kts | 144° |
| 2026-04-23 16:35 | -6.19674 | 11.36452 | 30824 ft | 407 kts | 144° |
| 2026-04-23 16:36 | -6.24301 | 11.39714 | 30826 ft | 406 kts | 144° |
| 2026-04-23 16:36 | -6.28936 | 11.42982 | 30827 ft | 406 kts | 144° |
| 2026-04-23 16:37 | -6.33565 | 11.46248 | 30829 ft | 406 kts | 144° |
| 2026-04-23 16:37 | -6.38166 | 11.49495 | 30826 ft | 407 kts | 144° |
| 2026-04-23 16:38 | -6.42799 | 11.52766 | 30823 ft | 407 kts | 144° |
| 2026-04-23 16:38 | -6.47420 | 11.56028 | 30823 ft | 407 kts | 144° |
| 2026-04-23 16:39 | -6.52062 | 11.59308 | 30820 ft | 407 kts | 144° |
| 2026-04-23 16:39 | -6.56701 | 11.62587 | 30820 ft | 407 kts | 144° |
| 2026-04-23 16:40 | -6.61333 | 11.65860 | 30821 ft | 407 kts | 144° |
| 2026-04-23 16:40 | -6.65971 | 11.69138 | 30823 ft | 407 kts | 144° |
| 2026-04-23 16:41 | -6.70583 | 11.72398 | 30822 ft | 407 kts | 144° |
| 2026-04-23 16:41 | -6.75225 | 11.75680 | 30824 ft | 408 kts | 144° |
| 2026-04-23 16:42 | -6.79866 | 11.78962 | 30790 ft | 408 kts | 144° |
| 2026-04-23 16:42 | -6.82193 | 11.80608 | 30678 ft | 409 kts | 144° |
| 2026-04-23 16:42 | -6.84492 | 11.82234 | 30563 ft | 408 kts | 144° |
| 2026-04-23 16:43 | -6.86819 | 11.83880 | 30449 ft | 408 kts | 144° |
| 2026-04-23 16:43 | -6.89139 | 11.85522 | 30336 ft | 408 kts | 144° |
| 2026-04-23 16:43 | -6.91458 | 11.87163 | 30211 ft | 408 kts | 144° |
| 2026-04-23 16:43 | -6.93785 | 11.88810 | 30112 ft | 408 kts | 144° |
| 2026-04-23 16:44 | -6.96109 | 11.90455 | 29994 ft | 408 kts | 144° |
| 2026-04-23 16:44 | -6.98434 | 11.92101 | 29883 ft | 407 kts | 144° |
| 2026-04-23 16:44 | -7.00754 | 11.93744 | 29748 ft | 407 kts | 144° |
| 2026-04-23 16:44 | -7.03065 | 11.95380 | 29618 ft | 406 kts | 144° |
| 2026-04-23 16:45 | -7.05344 | 11.96994 | 29485 ft | 405 kts | 144° |
| 2026-04-23 16:45 | -7.07650 | 11.98628 | 29352 ft | 405 kts | 144° |
| 2026-04-23 16:45 | -7.09951 | 12.00257 | 29222 ft | 404 kts | 144° |
| 2026-04-23 16:45 | -7.12255 | 12.01890 | 29098 ft | 404 kts | 144° |
| 2026-04-23 16:46 | -7.14552 | 12.03517 | 28965 ft | 403 kts | 144° |
| 2026-04-23 16:46 | -7.16840 | 12.05138 | 28848 ft | 402 kts | 144° |
| 2026-04-23 16:46 | -7.21415 | 12.08382 | 28824 ft | 402 kts | 144° |
| 2026-04-23 16:47 | -7.25984 | 12.11625 | 28821 ft | 402 kts | 144° |
| 2026-04-23 16:47 | -7.30537 | 12.14858 | 28821 ft | 402 kts | 144° |
| 2026-04-23 16:48 | -7.35111 | 12.18107 | 28820 ft | 402 kts | 144° |
| 2026-04-23 16:48 | -7.39687 | 12.21357 | 28820 ft | 402 kts | 144° |
| 2026-04-23 16:49 | -7.44266 | 12.24612 | 28824 ft | 401 kts | 145° |
| 2026-04-23 16:49 | -7.48783 | 12.27823 | 28822 ft | 399 kts | 145° |
| 2026-04-23 16:50 | -7.53317 | 12.31046 | 28820 ft | 399 kts | 145° |
| 2026-04-23 16:50 | -7.57876 | 12.34288 | 28474 ft | 403 kts | 145° |
| 2026-04-23 16:51 | -7.60167 | 12.35918 | 28096 ft | 402 kts | 145° |
| 2026-04-23 16:51 | -7.62449 | 12.37541 | 27725 ft | 401 kts | 145° |
| 2026-04-23 16:51 | -7.64729 | 12.39164 | 27346 ft | 400 kts | 145° |
| 2026-04-23 16:51 | -7.66998 | 12.40779 | 26988 ft | 398 kts | 145° |
| 2026-04-23 16:52 | -7.69258 | 12.42387 | 26630 ft | 397 kts | 145° |
| 2026-04-23 16:52 | -7.71517 | 12.43995 | 26280 ft | 396 kts | 145° |
| 2026-04-23 16:52 | -7.73760 | 12.45592 | 25920 ft | 395 kts | 145° |
| 2026-04-23 16:52 | -7.75993 | 12.47182 | 25581 ft | 402 kts | 145° |
| 2026-04-23 16:53 | -7.78303 | 12.48826 | 25227 ft | 410 kts | 145° |
| 2026-04-23 16:53 | -7.80636 | 12.50488 | 24888 ft | 411 kts | 145° |
| 2026-04-23 16:53 | -7.82973 | 12.52153 | 24553 ft | 411 kts | 145° |
| 2026-04-23 16:53 | -7.85278 | 12.53795 | 24226 ft | 410 kts | 145° |
| 2026-04-23 16:54 | -7.87607 | 12.55455 | 23896 ft | 408 kts | 145° |
| 2026-04-23 16:54 | -7.89923 | 12.57106 | 23570 ft | 407 kts | 145° |
| 2026-04-23 16:54 | -7.92233 | 12.58752 | 23223 ft | 406 kts | 145° |
| 2026-04-23 16:54 | -7.94535 | 12.60393 | 22839 ft | 404 kts | 145° |
| 2026-04-23 16:55 | -7.96828 | 12.62028 | 22452 ft | 403 kts | 145° |
| 2026-04-23 16:55 | -7.99131 | 12.63669 | 22069 ft | 408 kts | 145° |
| 2026-04-23 16:55 | -8.01455 | 12.65327 | 21689 ft | 409 kts | 144° |
| 2026-04-23 16:55 | -8.03777 | 12.66983 | 21325 ft | 407 kts | 144° |
| 2026-04-23 16:56 | -8.06056 | 12.68609 | 20970 ft | 405 kts | 144° |
| 2026-04-23 16:56 | -8.08353 | 12.70248 | 20617 ft | 403 kts | 144° |
| 2026-04-23 16:56 | -8.09896 | 12.71349 | 20375 ft | 401 kts | 144° |
| 2026-04-23 16:56 | -8.12908 | 12.73498 | 19911 ft | 398 kts | 144° |
| 2026-04-23 16:57 | -8.15161 | 12.75106 | 19568 ft | 396 kts | 144° |
| 2026-04-23 16:57 | -8.17404 | 12.76707 | 19213 ft | 393 kts | 144° |
| 2026-04-23 16:57 | -8.19631 | 12.78296 | 18885 ft | 391 kts | 144° |
| 2026-04-23 16:57 | -8.21848 | 12.79880 | 18551 ft | 389 kts | 144° |
| 2026-04-23 16:58 | -8.24045 | 12.81448 | 18227 ft | 387 kts | 144° |
| 2026-04-23 16:58 | -8.26240 | 12.83016 | 17861 ft | 385 kts | 144° |
| 2026-04-23 16:58 | -8.28424 | 12.84576 | 17484 ft | 383 kts | 144° |
| 2026-04-23 16:58 | -8.30590 | 12.86124 | 17106 ft | 380 kts | 144° |
| 2026-04-23 16:59 | -8.32013 | 12.87140 | 16859 ft | 379 kts | 144° |
| 2026-04-23 16:59 | -8.34159 | 12.88673 | 16495 ft | 376 kts | 144° |
| 2026-04-23 16:59 | -8.36983 | 12.90691 | 16012 ft | 373 kts | 144° |
| 2026-04-23 16:59 | -8.39097 | 12.92203 | 15659 ft | 371 kts | 144° |
| 2026-04-23 17:00 | -8.40489 | 12.93197 | 15420 ft | 369 kts | 144° |
| 2026-04-23 17:00 | -8.42610 | 12.94714 | 15059 ft | 367 kts | 143° |
| 2026-04-23 17:00 | -8.45362 | 12.96681 | 14598 ft | 364 kts | 143° |
| 2026-04-23 17:00 | -8.46731 | 12.97661 | 14375 ft | 363 kts | 143° |
| 2026-04-23 17:01 | -8.48788 | 12.99132 | 14039 ft | 361 kts | 143° |
| 2026-04-23 17:01 | -8.50834 | 13.00595 | 13714 ft | 359 kts | 143° |
| 2026-04-23 17:01 | -8.52862 | 13.02046 | 13338 ft | 357 kts | 143° |
| 2026-04-23 17:01 | -8.54882 | 13.03491 | 12960 ft | 355 kts | 143° |
| 2026-04-23 17:02 | -8.56889 | 13.04927 | 12588 ft | 353 kts | 143° |
| 2026-04-23 17:02 | -8.58889 | 13.06359 | 12218 ft | 351 kts | 143° |
| 2026-04-23 17:02 | -8.60870 | 13.07777 | 11854 ft | 349 kts | 143° |
| 2026-04-23 17:02 | -8.62829 | 13.09179 | 11504 ft | 347 kts | 143° |
| 2026-04-23 17:03 | -8.64798 | 13.10589 | 11151 ft | 346 kts | 143° |
| 2026-04-23 17:03 | -8.66743 | 13.11981 | 10714 ft | 337 kts | 143° |
| 2026-04-23 17:03 | -8.68626 | 13.13327 | 10217 ft | 326 kts | 143° |
| 2026-04-23 17:03 | -8.70463 | 13.14641 | 9700 ft | 319 kts | 143° |
| 2026-04-23 17:04 | -8.72253 | 13.15922 | 9206 ft | 311 kts | 142° |
| 2026-04-23 17:04 | -8.73976 | 13.17153 | 9015 ft | 296 kts | 142° |
| 2026-04-23 17:04 | -8.75640 | 13.18344 | 8895 ft | 290 kts | 142° |
| 2026-04-23 17:04 | -8.77239 | 13.19488 | 8772 ft | 288 kts | 142° |
| 2026-04-23 17:05 | -8.78873 | 13.20659 | 8648 ft | 288 kts | 142° |
| 2026-04-23 17:05 | -8.80509 | 13.21834 | 8271 ft | 288 kts | 142° |
| 2026-04-23 17:05 | -8.82138 | 13.23004 | 7790 ft | 286 kts | 142° |
| 2026-04-23 17:05 | -8.83696 | 13.24184 | 7322 ft | 282 kts | 136° |
| 2026-04-23 17:06 | -8.85052 | 13.25633 | 6940 ft | 277 kts | 128° |
| 2026-04-23 17:06 | -8.86250 | 13.27126 | 6701 ft | 276 kts | 125° |
| 2026-04-23 17:06 | -8.87398 | 13.28680 | 6463 ft | 275 kts | 123° |
| 2026-04-23 17:06 | -8.88507 | 13.30252 | 6232 ft | 274 kts | 123° |
| 2026-04-23 17:07 | -8.89595 | 13.31826 | 6011 ft | 272 kts | 123° |
| 2026-04-23 17:07 | -8.90671 | 13.33389 | 5755 ft | 271 kts | 122° |
| 2026-04-23 17:07 | -8.91754 | 13.34955 | 5510 ft | 270 kts | 122° |
| 2026-04-23 17:07 | -8.92833 | 13.36508 | 5270 ft | 270 kts | 122° |
| 2026-04-23 17:08 | -8.93917 | 13.38061 | 5044 ft | 270 kts | 123° |
| 2026-04-23 17:08 | -8.94987 | 13.39588 | 4811 ft | 261 kts | 123° |
| 2026-04-23 17:08 | -8.96020 | 13.41056 | 4571 ft | 252 kts | 123° |
| 2026-04-23 17:08 | -8.97028 | 13.42487 | 4339 ft | 248 kts | 123° |
| 2026-04-23 17:09 | -8.98019 | 13.43894 | 4093 ft | 243 kts | 123° |
| 2026-04-23 17:09 | -8.98968 | 13.45244 | 3990 ft | 234 kts | 123° |
| 2026-04-23 17:09 | -8.99886 | 13.46587 | 3967 ft | 226 kts | 122° |
| 2026-04-23 17:09 | -9.00757 | 13.47883 | 3970 ft | 225 kts | 122° |
| 2026-04-23 17:10 | -9.01633 | 13.49191 | 3973 ft | 225 kts | 122° |
| 2026-04-23 17:10 | -9.02508 | 13.50505 | 3972 ft | 225 kts | 122° |
| 2026-04-23 17:10 | -9.03375 | 13.51820 | 3973 ft | 225 kts | 122° |
| 2026-04-23 17:10 | -9.04245 | 13.53129 | 3972 ft | 224 kts | 122° |
| 2026-04-23 17:11 | -9.05128 | 13.54430 | 4118 ft | 226 kts | 128° |
| 2026-04-23 17:11 | -9.06453 | 13.55352 | 4632 ft | 244 kts | 158° |
| 2026-04-23 17:11 | -9.08138 | 13.55501 | 4913 ft | 245 kts | 188° |
| 2026-04-23 17:11 | -9.09649 | 13.54807 | 4966 ft | 242 kts | 219° |
| 2026-04-23 17:12 | -9.10757 | 13.53513 | 4969 ft | 242 kts | 234° |
| 2026-04-23 17:12 | -9.11684 | 13.52086 | 4972 ft | 243 kts | 237° |
| 2026-04-23 17:12 | -9.12535 | 13.50608 | 4973 ft | 243 kts | 247° |
| 2026-04-23 17:12 | -9.13079 | 13.48987 | 4978 ft | 243 kts | 255° |
| 2026-04-23 17:13 | -9.13487 | 13.47321 | 4972 ft | 243 kts | 259° |
| 2026-04-23 17:13 | -9.13318 | 13.45668 | 4972 ft | 237 kts | 299° |
| 2026-04-23 17:13 | -9.12198 | 13.44533 | 4976 ft | 228 kts | 340° |
| 2026-04-23 17:13 | -9.10689 | 13.44333 | 4982 ft | 224 kts | 5° |
| 2026-04-23 17:14 | -9.09121 | 13.44192 | 4870 ft | 230 kts | 342° |
| 2026-04-23 17:14 | -9.07828 | 13.43246 | 4754 ft | 234 kts | 308° |
| 2026-04-23 17:14 | -9.07180 | 13.41734 | 4639 ft | 238 kts | 283° |
| 2026-04-23 17:14 | -9.06923 | 13.40077 | 4514 ft | 239 kts | 278° |
| 2026-04-23 17:15 | -9.06743 | 13.38401 | 4400 ft | 239 kts | 277° |
| 2026-04-23 17:15 | -9.06574 | 13.36720 | 4273 ft | 240 kts | 277° |
| 2026-04-23 17:15 | -9.06404 | 13.35063 | 4117 ft | 239 kts | 277° |
| 2026-04-23 17:15 | -9.06232 | 13.33372 | 3949 ft | 238 kts | 277° |
| 2026-04-23 17:16 | -9.06063 | 13.31731 | 3778 ft | 236 kts | 281° |
| 2026-04-23 17:16 | -9.05746 | 13.30099 | 3611 ft | 235 kts | 280° |
| 2026-04-23 17:16 | -9.05546 | 13.28463 | 3462 ft | 234 kts | 277° |
| 2026-04-23 17:16 | -9.05376 | 13.26836 | 3293 ft | 232 kts | 277° |
| 2026-04-23 17:17 | -9.05207 | 13.25218 | 3133 ft | 231 kts | 278° |
| 2026-04-23 17:17 | -9.04849 | 13.23650 | 2953 ft | 228 kts | 293° |
| 2026-04-23 17:17 | -9.04006 | 13.22366 | 2738 ft | 214 kts | 316° |
| 2026-04-23 17:17 | -9.02881 | 13.21441 | 2522 ft | 203 kts | 324° |
| 2026-04-23 17:18 | -9.00612 | 13.19922 | 2165 ft | 191 kts | 326° |
| 2026-04-23 17:18 | -8.99503 | 13.19203 | 2042 ft | 188 kts | 326° |
| 2026-04-23 17:18 | -8.98405 | 13.18493 | 1982 ft | 186 kts | 326° |
| 2026-04-23 17:19 | -8.97309 | 13.17783 | 1966 ft | 188 kts | 326° |
| 2026-04-23 17:19 | -8.96208 | 13.17068 | 1966 ft | 187 kts | 326° |
| 2026-04-23 17:19 | -8.95110 | 13.16361 | 1967 ft | 187 kts | 328° |
| 2026-04-23 17:19 | -8.93895 | 13.15915 | 1963 ft | 186 kts | 354° |
| 2026-04-23 17:20 | -8.92680 | 13.16188 | 1964 ft | 180 kts | 31° |
| 2026-04-23 17:20 | -8.90845 | 13.17938 | 1859 ft | 181 kts | 46° |
| 2026-04-23 17:21 | -8.89128 | 13.19880 | 971 ft | 180 kts | 45° |
| 2026-04-23 17:21 | -8.88297 | 13.20776 | 520 ft | 172 kts | 44° |
| 2026-04-23 17:21 | -8.86893 | 13.22222 | 252 ft | 103 kts | 49° |
| 2026-04-23 17:22 | -8.86495 | 13.22655 | 253 ft | 68 kts | 49° |
| 2026-04-23 17:22 | -8.86030 | 13.23161 | 251 ft | 38 kts | 48° |
| 2026-04-23 17:23 | -8.85699 | 13.23497 | 251 ft | 30 kts | 49° |
| 2026-04-23 17:23 | -8.85560 | 13.23650 | 251 ft | 28 kts | 45° |
| 2026-04-23 17:23 | -8.85302 | 13.23737 | 249 ft | 17 kts | 314° |
| 2026-04-23 17:24 | -8.85227 | 13.23667 | 249 ft | 13 kts | 319° |
| 2026-04-23 17:24 | -8.85166 | 13.23612 | 249 ft | 11 kts | 320° |
| 2026-04-23 17:24 | -8.85061 | 13.23545 | 250 ft | 7 kts | 335° |
| 2026-04-23 17:25 | -8.85039 | 13.23520 | 250 ft | 1 kts | 296° |
| 2026-04-23 17:25 | -8.85028 | 13.23516 | 250 ft | 3 kts | 337° |
| 2026-04-23 17:26 | -8.84953 | 13.23471 | 251 ft | 7 kts | 316° |
| 2026-04-23 17:26 | -8.84906 | 13.23441 | 251 ft | 0 kts | 334° |